WXM80 ListenWXM80 Stop

You find our weather info also at:

UK Metoffice

WeatherCloud

Weather Underground

Northeastern Weather Network

AWEKAS

Citizen Weather Observer Program (CWOP)

HAMweather, WeatherForYou, PWS Weather


Weather Underground History page Text

Daily Summary for March 28, 2017 Units:  Metric    English   Both
« Previous Day
Next Day »
Daily Weekly Monthly Yearly Custom
  High: Low: Average:
Temperature: 5.3 °C 4.1 °C 4.6 °C
Dew Point: 5.1 °C 3.8 °C 4.3 °C
Humidity: 98 % 98 % 98 %
Wind Speed: 17.7 km/h 0 km/h 7.1 km/h
Wind Gust: 27.8 km/h - -
Wind:- - ENE
Pressure: 1015.5 hPa 1010.7 hPa -
Precipitation: 0 mm    
Historical Graphs
 
 
Tabular Data for March 28, 2017
Time Temperature Dew Point Pressure Wind Wind Speed Wind Gust Humidity Rainfall Rate (Hourly)
00:02 5 °C 4.7 °C 1015.5 hPa East 8.7 km/h 9.7 km/h 98 % 0 mm
00:07 5.1 °C 4.8 °C 1015.5 hPa East 9.3 km/h 11.1 km/h 98 % 0 mm
00:12 5.1 °C 4.8 °C 1015.5 hPa East 7.2 km/h 9.3 km/h 98 % 0 mm
00:17 5.1 °C 4.8 °C 1015.5 hPa East 6.4 km/h 11.1 km/h 98 % 0 mm
00:22 5.1 °C 4.8 °C 1015.5 hPa East 7.1 km/h 9.3 km/h 98 % 0 mm
00:27 5.1 °C 4.8 °C 1015.5 hPa East 3.2 km/h 9.7 km/h 98 % 0 mm
00:32 5.1 °C 4.8 °C 1015.5 hPa East 4.8 km/h 8 km/h 98 % 0 mm
00:37 5.1 °C 4.8 °C 1015.5 hPa East 1.6 km/h 4.8 km/h 98 % 0 mm
00:42 5.2 °C 4.9 °C 1015.1 hPa East 3.2 km/h 8 km/h 98 % 0 mm
00:47 5.2 °C 4.9 °C 1015.1 hPa East 3.2 km/h 8 km/h 98 % 0 mm
00:52 5.3 °C 5 °C 1015.1 hPa East 3.2 km/h 8 km/h 98 % 0 mm
00:57 5.3 °C 5 °C 1015.1 hPa East 4.3 km/h 8 km/h 98 % 0 mm
01:02 5.3 °C 5.1 °C 1015.1 hPa East 4.8 km/h 7.4 km/h 98 % 0 mm
01:07 5.3 °C 5.1 °C 1015.1 hPa East 3.2 km/h 8 km/h 98 % 0 mm
01:12 5.3 °C 5.1 °C 1015.1 hPa East 3.4 km/h 5.6 km/h 98 % 0 mm
01:17 5.3 °C 5.1 °C 1014.8 hPa ENE 4 km/h 5.6 km/h 98 % 0 mm
01:22 5.3 °C 5.1 °C 1014.8 hPa ENE 4.7 km/h 5.6 km/h 98 % 0 mm
01:27 5.3 °C 5 °C 1014.8 hPa ENE 3.2 km/h 6.4 km/h 98 % 0 mm
01:32 5.3 °C 5 °C 1014.8 hPa ENE 3.4 km/h 5.6 km/h 98 % 0 mm
01:37 5.2 °C 4.9 °C 1014.4 hPa ENE 3.2 km/h 6.4 km/h 98 % 0 mm
01:42 5.3 °C 5 °C 1014.4 hPa ENE 3.2 km/h 6.4 km/h 98 % 0 mm
01:47 5.3 °C 5 °C 1014.4 hPa ENE 4.8 km/h 6.4 km/h 98 % 0 mm
01:52 5.2 °C 4.9 °C 1014.4 hPa ENE 4.8 km/h 8 km/h 98 % 0 mm
01:57 5.2 °C 4.9 °C 1014.4 hPa ENE 4 km/h 5.6 km/h 98 % 0 mm
02:02 5.2 °C 4.9 °C 1014.4 hPa East 4.8 km/h 9.7 km/h 98 % 0 mm
02:07 5.2 °C 4.9 °C 1014.4 hPa East 4.8 km/h 9.7 km/h 98 % 0 mm
02:12 5.2 °C 4.9 °C 1014.1 hPa ENE 4.8 km/h 9.7 km/h 98 % 0 mm
02:17 5.3 °C 5 °C 1014.1 hPa ENE 4.8 km/h 9.7 km/h 98 % 0 mm
02:22 5.3 °C 5 °C 1014.1 hPa ENE 3.2 km/h 9.7 km/h 98 % 0 mm
02:27 5.2 °C 4.9 °C 1014.1 hPa ENE 3.2 km/h 4.8 km/h 98 % 0 mm
02:32 5.2 °C 4.9 °C 1014.1 hPa ENE 3.2 km/h 6.4 km/h 98 % 0 mm
02:37 5.2 °C 4.9 °C 1014.1 hPa ENE 3.2 km/h 6.4 km/h 98 % 0 mm
02:42 5.1 °C 4.8 °C 1013.8 hPa ENE 4.8 km/h 8 km/h 98 % 0 mm
02:47 5.1 °C 4.8 °C 1013.8 hPa ENE 4.8 km/h 8 km/h 98 % 0 mm
02:52 5.1 °C 4.8 °C 1013.4 hPa East 8 km/h 11.3 km/h 98 % 0 mm
02:57 5.1 °C 4.8 °C 1013.4 hPa ENE 7.9 km/h 11.3 km/h 98 % 0 mm
03:02 5 °C 4.7 °C 1013.4 hPa East 9.2 km/h 11.3 km/h 98 % 0 mm
03:07 4.9 °C 4.7 °C 1013.4 hPa ENE 7.7 km/h 11.1 km/h 98 % 0 mm
03:12 4.9 °C 4.6 °C 1013.8 hPa ENE 6.6 km/h 11.1 km/h 98 % 0 mm
03:17 4.8 °C 4.5 °C 1013.4 hPa NE 9.5 km/h 12.9 km/h 98 % 0 mm
03:22 4.7 °C 4.4 °C 1013.4 hPa ENE 7.2 km/h 11.1 km/h 98 % 0 mm
03:27 4.7 °C 4.4 °C 1013.8 hPa ENE 7.4 km/h 13 km/h 98 % 0 mm
03:30 4.6 °C 4.3 °C 1013.4 hPa ENE 6.9 km/h 9.7 km/h 98 % 0 mm
03:40 4.6 °C 4.3 °C 1013.4 hPa East 7.4 km/h 9.3 km/h 98 % 0 mm
03:45 4.6 °C 4.3 °C 1013.4 hPa East 8 km/h 11.3 km/h 98 % 0 mm
03:50 4.5 °C 4.2 °C 1013.8 hPa NE 5.1 km/h 8 km/h 98 % 0 mm
03:55 4.5 °C 4.2 °C 1013.8 hPa ENE 4.3 km/h 7.4 km/h 98 % 0 mm
04:00 4.5 °C 4.2 °C 1013.4 hPa East 6.9 km/h 13 km/h 98 % 0 mm
04:05 4.4 °C 4.2 °C 1013.1 hPa East 8.4 km/h 11.1 km/h 98 % 0 mm
04:10 4.5 °C 4.2 °C 1013.1 hPa ENE 9.3 km/h 13 km/h 98 % 0 mm
04:15 4.4 °C 4.2 °C 1013.4 hPa ENE 4.2 km/h 7.4 km/h 98 % 0 mm
04:17 4.4 °C 4.2 °C 1013.8 hPa NNW 3.1 km/h 6.4 km/h 98 % 0 mm
04:22 4.4 °C 4.2 °C 1013.8 hPa ENE 4.2 km/h 9.3 km/h 98 % 0 mm
04:27 4.4 °C 4.1 °C 1013.1 hPa East 9.2 km/h 11.1 km/h 98 % 0 mm
04:32 4.4 °C 4.1 °C 1013.1 hPa NE 9.2 km/h 14.8 km/h 98 % 0 mm
04:37 4.3 °C 4.1 °C 1013.4 hPa East 2.7 km/h 13 km/h 98 % 0 mm
04:42 4.3 °C 4.1 °C 1013.4 hPa ENE 6.9 km/h 11.1 km/h 98 % 0 mm
04:47 4.3 °C 4.1 °C 1013.4 hPa East 5.8 km/h 8 km/h 98 % 0 mm
04:52 4.4 °C 4.1 °C 1013.1 hPa East 7.1 km/h 9.3 km/h 98 % 0 mm
04:57 4.4 °C 4.2 °C 1012.8 hPa East 10 km/h 14.8 km/h 98 % 0 mm
05:07 4.5 °C 4.2 °C 1013.4 hPa East 1.1 km/h 1.9 km/h 98 % 0 mm
05:12 4.6 °C 4.3 °C 1013.4 hPa ESE 2.7 km/h 5.6 km/h 98 % 0 mm
05:13 4.6 °C 4.3 °C 1013.4 hPa East 3.9 km/h 8 km/h 98 % 0 mm
05:18 4.7 °C 4.4 °C 1013.1 hPa East 6.4 km/h 9.3 km/h 98 % 0 mm
05:23 4.7 °C 4.4 °C 1013.1 hPa East 0.5 km/h 5.6 km/h 98 % 0 mm
05:28 4.8 °C 4.5 °C 1014.8 hPa NNW 10.3 km/h 18.5 km/h 98 % 0 mm
05:33 4.7 °C 4.4 °C 1013.8 hPa North 6.3 km/h 8 km/h 98 % 0 mm
05:38 4.7 °C 4.4 °C 1014.4 hPa NNW 4 km/h 8 km/h 98 % 0 mm
05:43 4.6 °C 4.3 °C 1014.4 hPa NNE 6.6 km/h 9.3 km/h 98 % 0 mm
05:48 4.6 °C 4.3 °C 1013.8 hPa ENE 7.2 km/h 13 km/h 98 % 0 mm
05:53 4.4 °C 4.2 °C 1013.8 hPa East 1.1 km/h 9.3 km/h 98 % 0 mm
05:58 4.4 °C 4.1 °C 1013.8 hPa East 3.7 km/h 8 km/h 98 % 0 mm
06:03 4.4 °C 4.1 °C 1013.8 hPa East 3.2 km/h 5.6 km/h 98 % 0 mm
06:08 4.4 °C 4.1 °C 1013.8 hPa ENE 7.2 km/h 11.1 km/h 98 % 0 mm
06:13 4.3 °C 4.1 °C 1013.8 hPa North 5.8 km/h 8 km/h 98 % 0 mm
06:18 4.3 °C 4.1 °C 1013.4 hPa East 8 km/h 11.1 km/h 98 % 0 mm
06:23 4.3 °C 4 °C 1013.4 hPa East 4 km/h 9.3 km/h 98 % 0 mm
06:28 4.3 °C 4 °C 1013.8 hPa ENE 4 km/h 4.8 km/h 98 % 0 mm
06:33 4.2 °C 3.9 °C 1013.4 hPa East 10.3 km/h 13 km/h 98 % 0 mm
06:38 4.2 °C 3.9 °C 1013.4 hPa East 5.3 km/h 11.1 km/h 98 % 0 mm
06:43 4.2 °C 3.9 °C 1013.8 hPa ENE 10.3 km/h 13 km/h 98 % 0 mm
06:48 4.2 °C 3.9 °C 1013.4 hPa ENE 6.1 km/h 11.1 km/h 98 % 0 mm
06:53 4.2 °C 3.9 °C 1013.8 hPa ENE 8.4 km/h 11.1 km/h 98 % 0 mm
06:58 4.2 °C 3.9 °C 1013.4 hPa ESE 11.1 km/h 14.8 km/h 98 % 0 mm
07:04 4.2 °C 3.9 °C 1013.4 hPa ENE 7.4 km/h 13 km/h 98 % 0 mm
07:09 4.2 °C 3.9 °C 1013.8 hPa ENE 7.7 km/h 14.8 km/h 98 % 0 mm
07:14 4.2 °C 3.9 °C 1013.8 hPa ENE 5.3 km/h 6.4 km/h 98 % 0 mm
07:19 4.2 °C 3.9 °C 1013.8 hPa East 6.3 km/h 8 km/h 98 % 0 mm
07:24 4.2 °C 3.9 °C 1013.8 hPa ENE 2.6 km/h 5.6 km/h 98 % 0 mm
07:29 4.2 °C 3.9 °C 1013.8 hPa ENE 7.7 km/h 12.9 km/h 98 % 0 mm
07:34 4.2 °C 3.9 °C 1013.8 hPa East 6.4 km/h 9.7 km/h 98 % 0 mm
07:39 4.2 °C 3.9 °C 1013.8 hPa East 6 km/h 7.4 km/h 98 % 0 mm
07:44 4.2 °C 3.9 °C 1013.8 hPa East 6.6 km/h 9.3 km/h 98 % 0 mm
07:49 4.3 °C 4 °C 1013.8 hPa ENE 4.3 km/h 5.6 km/h 98 % 0 mm
07:54 4.3 °C 4.1 °C 1013.8 hPa ENE 5.8 km/h 7.4 km/h 98 % 0 mm
07:59 4.3 °C 4.1 °C 1013.8 hPa ENE 4.3 km/h 5.6 km/h 98 % 0 mm
08:04 4.3 °C 4.1 °C 1013.8 hPa ENE 5 km/h 5.6 km/h 98 % 0 mm
08:09 4.3 °C 4.1 °C 1013.8 hPa East 4.5 km/h 7.4 km/h 98 % 0 mm
08:14 4.3 °C 4.1 °C 1013.8 hPa East 6.3 km/h 9.3 km/h 98 % 0 mm
08:19 4.3 °C 4.1 °C 1014.1 hPa East 3.2 km/h 5.6 km/h 98 % 0 mm
08:24 4.4 °C 4.1 °C 1014.1 hPa ENE 3.7 km/h 7.4 km/h 98 % 0 mm
08:29 4.4 °C 4.1 °C 1013.8 hPa East 2.7 km/h 4.8 km/h 98 % 0 mm
08:34 4.4 °C 4.1 °C 1014.1 hPa ENE 4.3 km/h 9.3 km/h 98 % 0 mm
08:39 4.4 °C 4.1 °C 1014.1 hPa ENE 7.2 km/h 11.1 km/h 98 % 0 mm
08:44 4.4 °C 4.1 °C 1014.1 hPa ENE 4.5 km/h 7.4 km/h 98 % 0 mm
08:49 4.4 °C 4.1 °C 1014.1 hPa East 6.6 km/h 9.7 km/h 98 % 0 mm
08:54 4.3 °C 4.1 °C 1013.8 hPa East 8.7 km/h 14.8 km/h 98 % 0 mm
08:59 4.3 °C 4.1 °C 1014.1 hPa ENE 7.2 km/h 11.3 km/h 98 % 0 mm
09:04 4.3 °C 4 °C 1013.8 hPa ENE 7.6 km/h 9.3 km/h 98 % 0 mm
09:09 4.3 °C 4 °C 1013.8 hPa ENE 10.3 km/h 14.8 km/h 98 % 0 mm
09:14 4.3 °C 4 °C 1013.4 hPa NE 10 km/h 13 km/h 98 % 0 mm
09:19 4.3 °C 4.1 °C 1013.4 hPa ENE 9.3 km/h 13 km/h 98 % 0 mm
09:24 4.3 °C 4.1 °C 1013.4 hPa ENE 14.8 km/h 20.9 km/h 98 % 0 mm
09:30 4.3 °C 4.1 °C 1013.1 hPa ENE 13.4 km/h 20.4 km/h 98 % 0 mm
09:35 4.4 °C 4.1 °C 1013.1 hPa ENE 16.4 km/h 22.2 km/h 98 % 0 mm
09:40 4.4 °C 4.2 °C 1013.1 hPa East 15 km/h 22.2 km/h 98 % 0 mm
09:50 4.6 °C 4.3 °C 1013.1 hPa ENE 12.9 km/h 18.5 km/h 98 % 0 mm
10:00 4.6 °C 4.3 °C 1013.1 hPa NE 16.6 km/h 20.4 km/h 98 % 0 mm
10:05 4.6 °C 4.3 °C 1013.1 hPa East 16.3 km/h 19.3 km/h 98 % 0 mm
10:10 4.5 °C 4.2 °C 1013.4 hPa East 9.8 km/h 22.2 km/h 98 % 0 mm
10:15 4.6 °C 4.3 °C 1013.4 hPa East 8 km/h 9.7 km/h 98 % 0 mm
10:20 4.6 °C 4.3 °C 1013.4 hPa East 8 km/h 12.9 km/h 98 % 0 mm
10:25 4.6 °C 4.3 °C 1013.4 hPa ENE 11.4 km/h 14.5 km/h 98 % 0 mm
10:30 4.6 °C 4.3 °C 1013.8 hPa East 7.1 km/h 7.4 km/h 98 % 0 mm
10:35 4.6 °C 4.3 °C 1013.8 hPa ENE 5.8 km/h 13 km/h 98 % 0 mm
10:41 4.6 °C 4.3 °C 1013.8 hPa East 7.7 km/h 11.1 km/h 98 % 0 mm
10:46 4.6 °C 4.3 °C 1013.8 hPa ENE 6.6 km/h 8 km/h 98 % 0 mm
10:51 4.6 °C 4.3 °C 1014.1 hPa ENE 3.1 km/h 5.6 km/h 98 % 0 mm
10:56 4.6 °C 4.3 °C 1014.1 hPa NNE 3.4 km/h 5.6 km/h 98 % 0 mm
11:01 4.6 °C 4.3 °C 1013.8 hPa NNE 1.6 km/h 3.7 km/h 98 % 0 mm
11:06 4.6 °C 4.3 °C 1014.1 hPa ENE 3.7 km/h 5.6 km/h 98 % 0 mm
11:11 4.6 °C 4.3 °C 1014.1 hPa ENE 0.8 km/h 3.7 km/h 98 % 0 mm
11:16 4.6 °C 4.3 °C 1013.8 hPa ENE 4.5 km/h 6.4 km/h 98 % 0 mm
11:21 4.6 °C 4.3 °C 1014.1 hPa ENE 1.3 km/h 3.2 km/h 98 % 0 mm
11:26 4.5 °C 4.2 °C 1014.4 hPa Calm     98 % 0 mm
11:31 4.5 °C 4.2 °C 1014.8 hPa West 1.4 km/h 4.8 km/h 98 % 0 mm
11:36 4.5 °C 4.2 °C 1014.8 hPa Calm     98 % 0 mm
11:41 4.6 °C 4.3 °C 1014.8 hPa Calm     98 % 0 mm
11:46 4.6 °C 4.3 °C 1014.8 hPa Calm     98 % 0 mm
11:51 4.6 °C 4.3 °C 1014.8 hPa West 1.3 km/h 3.2 km/h 98 % 0 mm
11:56 4.6 °C 4.3 °C 1014.4 hPa NE 2.7 km/h 5.6 km/h 98 % 0 mm
12:01 4.6 °C 4.3 °C 1014.1 hPa ENE 4.8 km/h 8 km/h 98 % 0 mm
12:07 4.5 °C 4.2 °C 1014.1 hPa ENE 5.3 km/h 8 km/h 98 % 0 mm
12:09 4.5 °C 4.2 °C 1014.1 hPa ENE 5.8 km/h 8 km/h 98 % 0 mm
12:14 4.4 °C 4.2 °C 1013.8 hPa ENE 6.1 km/h 11.1 km/h 98 % 0 mm
12:19 4.4 °C 4.2 °C 1013.4 hPa ENE 8.4 km/h 11.3 km/h 98 % 0 mm
12:24 4.4 °C 4.1 °C 1013.1 hPa East 10.6 km/h 16.1 km/h 98 % 0 mm
12:29 4.4 °C 4.1 °C 1013.1 hPa East 8.9 km/h 16.7 km/h 98 % 0 mm
12:34 4.4 °C 4.1 °C 1013.1 hPa NE 9.5 km/h 16.7 km/h 98 % 0 mm
12:39 4.4 °C 4.1 °C 1012.8 hPa East 12.1 km/h 16.7 km/h 98 % 0 mm
12:44 4.4 °C 4.1 °C 1012.8 hPa ENE 8.9 km/h 14.8 km/h 98 % 0 mm
12:50 4.4 °C 4.1 °C 1013.1 hPa East 10 km/h 13 km/h 98 % 0 mm
12:55 4.4 °C 4.2 °C 1013.1 hPa ENE 8.4 km/h 11.3 km/h 98 % 0 mm
12:59 4.4 °C 4.2 °C 1012.8 hPa East 11.9 km/h 16.1 km/h 98 % 0 mm
13:05 4.4 °C 4.2 °C 1012.8 hPa East 10.1 km/h 14.8 km/h 98 % 0 mm
13:10 4.4 °C 4.1 °C 1012.4 hPa East 11.3 km/h 14.8 km/h 98 % 0 mm
13:15 4.3 °C 4.1 °C 1012.8 hPa ESE 9.5 km/h 14.8 km/h 98 % 0 mm
13:20 4.3 °C 4.1 °C 1012.8 hPa East 12.1 km/h 14.8 km/h 98 % 0 mm
13:22 4.3 °C 4.1 °C 1012.8 hPa East 10.1 km/h 13 km/h 98 % 0 mm
13:27 4.3 °C 4.1 °C 1012.8 hPa East 9 km/h 11.3 km/h 98 % 0 mm
13:28 4.3 °C 4.1 °C 1012.8 hPa East 8.9 km/h 11.3 km/h 98 % 0 mm
13:33 4.3 °C 4.1 °C 1012.8 hPa East 9.8 km/h 11.3 km/h 98 % 0 mm
13:38 4.4 °C 4.2 °C 1012.8 hPa East 9.5 km/h 11.3 km/h 98 % 0 mm
13:43 4.5 °C 4.2 °C 1012.8 hPa East 7.7 km/h 9.7 km/h 98 % 0 mm
13:48 4.6 °C 4.3 °C 1012.4 hPa East 11.3 km/h 13 km/h 98 % 0 mm
13:53 4.7 °C 4.4 °C 1012.4 hPa East 11.4 km/h 16.1 km/h 98 % 0 mm
13:58 4.7 °C 4.4 °C 1012.4 hPa East 9.2 km/h 14.8 km/h 98 % 0 mm
14:03 4.8 °C 4.5 °C 1012.4 hPa ENE 7.6 km/h 13 km/h 98 % 0 mm
14:08 4.8 °C 4.5 °C 1012.8 hPa ENE 6.8 km/h 7.4 km/h 98 % 0 mm
14:13 4.8 °C 4.5 °C 1012.8 hPa ENE 7.2 km/h 9.3 km/h 98 % 0 mm
14:18 4.8 °C 4.5 °C 1012.8 hPa ENE 5.6 km/h 9.3 km/h 98 % 0 mm
14:23 4.7 °C 4.4 °C 1012.8 hPa ENE 8 km/h 11.3 km/h 98 % 0 mm
14:28 4.7 °C 4.4 °C 1012.8 hPa East 7.7 km/h 9.3 km/h 98 % 0 mm
14:38 4.7 °C 4.4 °C 1012.8 hPa ENE 5 km/h 9.3 km/h 98 % 0 mm
14:43 4.7 °C 4.4 °C 1012.8 hPa East 9.2 km/h 14.8 km/h 98 % 0 mm
14:49 4.6 °C 4.3 °C 1012.8 hPa ENE 8.9 km/h 16.7 km/h 98 % 0 mm
14:54 4.5 °C 4.2 °C 1012.8 hPa NE 7.9 km/h 16.7 km/h 98 % 0 mm
14:59 4.4 °C 4.1 °C 1012.4 hPa ENE 10.9 km/h 16.7 km/h 98 % 0 mm
15:04 4.4 °C 4.1 °C 1012.4 hPa ENE 6.1 km/h 11.1 km/h 98 % 0 mm
15:09 4.3 °C 4.1 °C 1012.4 hPa ENE 12.2 km/h 22.2 km/h 98 % 0 mm
15:14 4.3 °C 4 °C 1012.1 hPa ENE 8.5 km/h 16.7 km/h 98 % 0 mm
15:19 4.2 °C 3.9 °C 1012.1 hPa ENE 15.3 km/h 22.2 km/h 98 % 0 mm
15:24 4.2 °C 3.9 °C 1012.1 hPa ENE 11.7 km/h 14.8 km/h 98 % 0 mm
15:29 4.2 °C 3.9 °C 1012.1 hPa ENE 10.9 km/h 14.8 km/h 98 % 0 mm
15:34 4.2 °C 3.9 °C 1011.7 hPa ENE 11.1 km/h 16.7 km/h 98 % 0 mm
15:39 4.2 °C 3.9 °C 1011.7 hPa ENE 11.6 km/h 14.8 km/h 98 % 0 mm
15:44 4.2 °C 3.9 °C 1011.1 hPa ENE 14.2 km/h 22.2 km/h 98 % 0 mm
15:49 4.2 °C 3.9 °C 1011.1 hPa East 17.7 km/h 24.1 km/h 98 % 0 mm
15:54 4.2 °C 3.9 °C 1011.1 hPa ENE 11.9 km/h 25.9 km/h 98 % 0 mm
15:59 4.2 °C 3.9 °C 1010.7 hPa East 17.4 km/h 27.8 km/h 98 % 0 mm
16:04 4.2 °C 3.9 °C 1010.7 hPa East 13.8 km/h 18.5 km/h 98 % 0 mm
16:09 4.2 °C 3.9 °C 1011.1 hPa ENE 10.6 km/h 16.7 km/h 98 % 0 mm
16:14 4.3 °C 4 °C 1011.1 hPa ESE 12.1 km/h 16.7 km/h 98 % 0 mm
16:20 4.3 °C 4.1 °C 1011.1 hPa East 10.6 km/h 14.8 km/h 98 % 0 mm
16:25 4.4 °C 4.1 °C 1011.1 hPa East 13.4 km/h 18.5 km/h 98 % 0 mm
16:30 4.4 °C 4.2 °C 1011.4 hPa East 12.4 km/h 14.8 km/h 98 % 0 mm
16:35 4.4 °C 4.1 °C 1011.4 hPa East 14.5 km/h 18.5 km/h 98 % 0 mm
16:40 4.4 °C 4.2 °C 1011.1 hPa East 11.3 km/h 16.7 km/h 98 % 0 mm
16:45 4.4 °C 4.1 °C 1011.1 hPa East 9.8 km/h 13 km/h 98 % 0 mm
16:50 4.4 °C 4.1 °C 1011.1 hPa East 10.6 km/h 14.8 km/h 98 % 0 mm
16:55 4.3 °C 4.1 °C 1011.1 hPa ENE 11.3 km/h 13 km/h 98 % 0 mm
17:00 4.3 °C 4.1 °C 1010.7 hPa East 12.6 km/h 16.7 km/h 98 % 0 mm
17:05 4.3 °C 4 °C 1010.7 hPa East 12.2 km/h 16.7 km/h 98 % 0 mm
17:10 4.2 °C 3.9 °C 1011.1 hPa ENE 7.6 km/h 13 km/h 98 % 0 mm
17:15 4.2 °C 3.9 °C 1011.1 hPa ENE 9.3 km/h 14.8 km/h 98 % 0 mm
17:20 4.2 °C 3.9 °C 1011.4 hPa ENE 9.3 km/h 14.8 km/h 98 % 0 mm
17:25 4.2 °C 3.9 °C 1011.4 hPa East 9.7 km/h 13 km/h 98 % 0 mm
17:30 4.2 °C 3.9 °C 1011.4 hPa ENE 11.4 km/h 14.5 km/h 98 % 0 mm
17:35 4.2 °C 3.9 °C 1011.1 hPa NE 10.5 km/h 18.5 km/h 98 % 0 mm
17:40 4.2 °C 3.9 °C 1011.1 hPa ENE 10.8 km/h 14.8 km/h 98 % 0 mm
17:45 4.2 °C 3.9 °C 1011.1 hPa ENE 11.4 km/h 16.7 km/h 98 % 0 mm
17:50 4.1 °C 3.8 °C 1011.1 hPa East 12.4 km/h 22.2 km/h 98 % 0 mm
17:55 4.1 °C 3.8 °C 1011.1 hPa East 14.5 km/h 18.5 km/h 98 % 0 mm
18:00 4.1 °C 3.8 °C 1010.7 hPa ENE 14.6 km/h 22.2 km/h 98 % 0 mm
18:05 4.1 °C 3.8 °C 1010.7 hPa NE 16.1 km/h 20.4 km/h 98 % 0 mm
18:10 4.1 °C 3.8 °C 1010.7 hPa ENE 13.5 km/h 18.5 km/h 98 % 0 mm
18:15 4.1 °C 3.8 °C 1011.1 hPa ENE 15.1 km/h 19.3 km/h 98 % 0 mm
18:20 4.1 °C 3.8 °C 1011.1 hPa ENE 11.7 km/h 18.5 km/h 98 % 0 mm
18:25 4.1 °C 3.8 °C 1011.4 hPa NE 12.4 km/h 18.5 km/h 98 % 0 mm
18:30 4.1 °C 3.8 °C 1011.4 hPa East 11.6 km/h 18.5 km/h 98 % 0 mm
18:35 4.2 °C 3.9 °C 1011.4 hPa ENE 11.1 km/h 18.5 km/h 98 % 0 mm
18:40 4.2 °C 3.9 °C 1011.7 hPa ENE 11.3 km/h 14.8 km/h 98 % 0 mm
18:45 4.2 °C 3.9 °C 1011.7 hPa ENE 11.3 km/h 16.1 km/h 98 % 0 mm
18:50 4.2 °C 3.9 °C 1011.7 hPa ENE 12.7 km/h 14.8 km/h 98 % 0 mm
18:55 4.2 °C 3.9 °C 1011.7 hPa ENE 10.5 km/h 16.7 km/h 98 % 0 mm
19:00 4.2 °C 3.9 °C 1011.7 hPa East 14 km/h 18.5 km/h 98 % 0 mm
19:05 4.2 °C 3.9 °C 1011.4 hPa NE 11.7 km/h 18.5 km/h 98 % 0 mm
19:10 4.3 °C 4 °C 1011.7 hPa ENE 11.4 km/h 18.5 km/h 98 % 0 mm
19:15 4.3 °C 4.1 °C 1011.7 hPa ENE 12.4 km/h 18.5 km/h 98 % 0 mm
19:20 4.3 °C 4.1 °C 1011.7 hPa ENE 12.2 km/h 14.8 km/h 98 % 0 mm
19:25 4.4 °C 4.1 °C 1011.7 hPa East 10.9 km/h 14.8 km/h 98 % 0 mm
19:30 4.4 °C 4.2 °C 1011.7 hPa East 9.8 km/h 13 km/h 98 % 0.25 mm
19:35 4.4 °C 4.2 °C 1011.7 hPa ENE 8 km/h 14.5 km/h 98 % 0.51 mm
19:40 4.4 °C 4.2 °C 1011.7 hPa ENE 11.3 km/h 18.5 km/h 98 % 0.76 mm
19:45 4.5 °C 4.2 °C 1011.7 hPa ENE 9.8 km/h 14.8 km/h 98 % 1.02 mm
19:50 4.5 °C 4.2 °C 1011.7 hPa ENE 10.8 km/h 14.8 km/h 98 % 1.02 mm
19:56 4.5 °C 4.2 °C 1011.7 hPa NE 13.5 km/h 16.7 km/h 98 % 1.02 mm
20:01 4.5 °C 4.2 °C 1011.7 hPa East 9.2 km/h 16.7 km/h 98 % 1.02 mm
20:06 4.5 °C 4.2 °C 1012.1 hPa ENE 7.4 km/h 11.3 km/h 98 % 1.52 mm
20:11 4.6 °C 4.3 °C 1012.1 hPa ENE 8.5 km/h 13 km/h 98 % 2.03 mm
20:16 4.6 °C 4.3 °C 1012.1 hPa ENE 8.9 km/h 13 km/h 98 % 2.79 mm
20:21 4.6 °C 4.3 °C 1012.1 hPa ENE 6.9 km/h 11.1 km/h 98 % 3.56 mm
20:26 4.6 °C 4.3 °C 1012.1 hPa ENE 5.6 km/h 9.3 km/h 98 % 4.06 mm
20:31 4.6 °C 4.3 °C 1012.1 hPa ENE 7.2 km/h 11.1 km/h 98 % 4.83 mm
20:36 4.6 °C 4.3 °C 1012.1 hPa East 7.4 km/h 11.1 km/h 98 % 4.83 mm
20:41 4.6 °C 4.3 °C 1012.1 hPa East 6.8 km/h 9.7 km/h 98 % 5.59 mm
20:46 4.6 °C 4.3 °C 1012.1 hPa ENE 8.2 km/h 9.3 km/h 98 % 6.1 mm
20:51 4.6 °C 4.3 °C 1012.4 hPa East 7.2 km/h 11.3 km/h 98 % 7.37 mm
20:56 4.6 °C 4.3 °C 1012.4 hPa ENE 3.5 km/h 5.6 km/h 98 % 8.38 mm
21:01 4.6 °C 4.3 °C 1012.4 hPa ENE 4.5 km/h 7.4 km/h 98 % 9.14 mm
21:06 4.6 °C 4.3 °C 1012.4 hPa ENE 4.7 km/h 5.6 km/h 98 % 9.14 mm
21:11 4.6 °C 4.3 °C 1012.4 hPa ENE 4.8 km/h 6.4 km/h 98 % 8.89 mm
21:16 4.6 °C 4.3 °C 1012.4 hPa ENE 3.7 km/h 5.6 km/h 98 % 8.64 mm
21:21 4.6 °C 4.3 °C 1012.4 hPa ENE 3.5 km/h 5.6 km/h 98 % 8.13 mm
21:26 4.7 °C 4.4 °C 1012.4 hPa ENE 3.7 km/h 5.6 km/h 98 % 7.87 mm
21:31 4.7 °C 4.4 °C 1012.4 hPa ENE 4.8 km/h 5.6 km/h 98 % 7.11 mm
21:36 4.8 °C 4.5 °C 1012.4 hPa ENE 4.8 km/h 5.6 km/h 98 % 6.6 mm
21:41 4.8 °C 4.6 °C 1012.8 hPa ENE 3.7 km/h 5.6 km/h 98 % 5.84 mm
21:46 4.8 °C 4.6 °C 1012.4 hPa NE 3.4 km/h 5.6 km/h 98 % 5.08 mm
21:51 4.8 °C 4.6 °C 1012.4 hPa ENE 2.3 km/h 3.7 km/h 98 % 3.81 mm
21:56 4.8 °C 4.5 °C 1012.4 hPa NNE 1.4 km/h 5.6 km/h 98 % 2.79 mm
22:01 4.8 °C 4.5 °C 1012.4 hPa NNE 5 km/h 5.6 km/h 98 % 2.03 mm
22:06 4.7 °C 4.4 °C 1012.8 hPa NNE 5.3 km/h 5.6 km/h 98 % 1.52 mm
22:11 4.7 °C 4.4 °C 1012.4 hPa NNE 2.3 km/h 5.6 km/h 98 % 1.27 mm
22:16 4.7 °C 4.4 °C 1012.8 hPa NNE 1.6 km/h 3.7 km/h 98 % 0.76 mm
22:21 4.6 °C 4.3 °C 1012.4 hPa NNE 2.1 km/h 5.6 km/h 98 % 0.51 mm
22:26 4.6 °C 4.3 °C 1012.4 hPa NNE 1.8 km/h 1.8 km/h 98 % 0.25 mm
22:31 4.6 °C 4.3 °C 1012.4 hPa NNE 0.8 km/h 3.7 km/h 98 % 0 mm
22:36 4.6 °C 4.3 °C 1012.4 hPa NNE 0.5 km/h 1.9 km/h 98 % 0 mm
22:41 4.5 °C 4.2 °C 1012.4 hPa Calm   1.9 km/h 98 % 0 mm
22:46 4.5 °C 4.2 °C 1012.4 hPa ENE 3.1 km/h 5.6 km/h 98 % 0 mm
22:51 4.4 °C 4.2 °C 1012.4 hPa NE 1.3 km/h 3.7 km/h 98 % 0 mm
22:57 4.4 °C 4.2 °C 1012.4 hPa ENE 4.5 km/h 7.4 km/h 98 % 0 mm
23:02 4.4 °C 4.1 °C 1012.4 hPa ENE 2.3 km/h 5.6 km/h 98 % 0 mm
23:07 4.4 °C 4.1 °C 1012.4 hPa ENE 0.2 km/h 3.7 km/h 98 % 0 mm
23:12 4.4 °C 4.1 °C 1012.4 hPa NE 1 km/h 1.9 km/h 98 % 0 mm
23:17 4.4 °C 4.1 °C 1012.4 hPa NE 0.2 km/h 1.9 km/h 98 % 0 mm
23:22 4.4 °C 4.1 °C 1012.4 hPa Calm   1.9 km/h 98 % 0 mm
23:27 4.4 °C 4.1 °C 1012.4 hPa NE 0.2 km/h 1.9 km/h 98 % 0 mm
23:32 4.4 °C 4.1 °C 1012.4 hPa Calm     98 % 0 mm
23:37 4.4 °C 4.1 °C 1012.4 hPa Calm     98 % 0 mm
23:42 4.4 °C 4.1 °C 1012.1 hPa NE 0.5 km/h 1.9 km/h 98 % 0 mm
23:47 4.4 °C 4.1 °C 1012.1 hPa NE 0.6 km/h 3.7 km/h 98 % 0 mm
23:52 4.4 °C 4.1 °C 1012.1 hPa NE 0.2 km/h 1.9 km/h 98 % 0 mm
23:57 4.4 °C 4.1 °C 1012.4 hPa NE 0.2 km/h 1.9 km/h 98 % 0 mm
Crab Meadow Weather
Compliments of Weather Underground - 3 mb

Script developed by  Jim McMurry - jmcmurry@mwt.net Adapted for the template by  Wim van der Kuil - Leuven-Template.eu

Extremes: The most widespread U.S. cold wave was in February of 1899. It was so cold that the Mississippi River froze over its entire length, with ice as thick as two inches even in New Orleans.